Avon Lake, Iowa
Current Conditions -  °F | °C
As of 8:23 AM on Thursday 23 Oct 2014 (Local Time) from KDSM Reporting Station
Drizzle Drizzle  
Wind Chill: 55°   Ceiling: 900
Heat Index: 55°   Visibility: 8mi
Dew Point: 52°   Wind: 6mph
Humidity: 89%   Direction: 190°S
Pressure: 30.04"   Gusts: NA
Location:  41.4707°N, 93.4797°W
Report Text: KDSM 231323Z 19005KT 8SM -DZ BKN009 OVC037 13/11 A3004 RMK AO2 DZE1256B23RAB1256E14 P0001 T01280111
Loading
Personal Weather Stations






























Interactive Weather Map
Tropical Storm Tracking
New forecast layout! Learn more

10-Day Weather Forecast

Advertisements
Track Severe Weather on mobile